createdAt,value
2019-04-27T00:00:10.887Z,8.43
2019-04-27T00:02:44.428Z,4.12
2019-04-27T00:05:35.316Z,8.43
2019-04-27T00:08:05.212Z,3.87
2019-04-27T00:10:38.624Z,3.95
2019-04-27T00:13:08.084Z,4.20
2019-04-27T00:15:54.671Z,3.83
2019-04-27T00:18:40.318Z,3.37
2019-04-27T00:21:13.514Z,4.08
2019-04-27T00:23:45.365Z,3.75
2019-04-27T00:26:14.233Z,4.12
2019-04-27T00:28:43.429Z,3.33
2019-04-27T00:31:13.231Z,2.87
2019-04-27T00:33:43.461Z,3.40
2019-04-27T00:36:26.455Z,2.72
2019-04-27T00:38:59.824Z,3.05
2019-04-27T00:41:28.665Z,3.22
2019-04-27T00:43:57.486Z,4.00
2019-04-27T00:46:26.355Z,4.67
2019-04-27T00:48:55.179Z,3.95
2019-04-27T00:51:24.033Z,2.87
2019-04-27T00:53:53.719Z,2.35
2019-04-27T00:56:27.346Z,2.90
2019-04-27T00:59:06.732Z,2.10
2019-04-27T01:01:37.150Z,2.30
2019-04-27T01:04:07.582Z,2.55
2019-04-27T01:06:36.402Z,2.77
2019-04-27T01:09:06.351Z,2.67
2019-04-27T01:11:35.192Z,2.30
2019-04-27T01:14:04.153Z,2.05
2019-04-27T01:16:32.991Z,2.12
2019-04-27T01:19:01.851Z,2.60
2019-04-27T01:21:30.680Z,2.83
2019-04-27T01:23:59.620Z,2.60
2019-04-27T01:26:29.995Z,2.30
2019-04-27T01:29:15.439Z,2.50
2019-04-27T01:31:44.264Z,2.40
2019-04-27T01:34:13.123Z,2.00
2019-04-27T01:36:41.955Z,2.47
2019-04-27T01:39:12.389Z,2.20
2019-04-27T01:41:41.202Z,2.30
2019-04-27T01:44:10.068Z,2.45
2019-04-27T01:46:39.643Z,2.37
2019-04-27T01:49:09.264Z,2.33
2019-04-27T01:51:39.133Z,2.42
2019-04-27T01:54:10.378Z,2.42
2019-04-27T01:56:39.644Z,2.40
2019-04-27T01:59:08.734Z,2.27
2019-04-27T02:01:55.280Z,2.58
2019-04-27T02:04:29.397Z,2.22
2019-04-27T02:06:59.891Z,2.10
2019-04-27T02:09:28.920Z,2.33
2019-04-27T02:11:59.145Z,3.05
2019-04-27T02:14:28.798Z,2.45
2019-04-27T02:16:59.537Z,2.33
2019-04-27T02:19:29.341Z,2.17
2019-04-27T02:21:59.772Z,2.65
2019-04-27T02:24:28.977Z,2.40
2019-04-27T02:26:58.723Z,2.20
2019-04-27T02:29:29.345Z,2.42
2019-04-27T02:32:01.120Z,2.35
2019-04-27T02:34:50.459Z,2.40
2019-04-27T02:37:20.042Z,2.62
2019-04-27T02:39:50.020Z,1.92
2019-04-27T02:42:21.220Z,2.40
2019-04-27T02:44:50.080Z,2.10
2019-04-27T02:47:20.883Z,2.25
2019-04-27T02:49:50.684Z,2.00
2019-04-27T02:52:30.518Z,2.40
2019-04-27T02:54:59.477Z,2.10
2019-04-27T02:57:30.125Z,2.47
2019-04-27T03:00:00.012Z,2.37
2019-04-27T03:02:30.852Z,2.42
2019-04-27T03:05:00.567Z,2.00
2019-04-27T03:07:30.348Z,2.17
2019-04-27T03:10:02.159Z,1.92
2019-04-27T03:12:31.427Z,2.15
2019-04-27T03:15:10.188Z,2.10
2019-04-27T03:17:56.369Z,2.08
2019-04-27T03:20:32.501Z,1.98
2019-04-27T03:23:02.917Z,2.50
2019-04-27T03:25:42.519Z,2.65
2019-04-27T03:28:13.101Z,2.60
2019-04-27T03:30:43.487Z,2.60
2019-04-27T03:33:12.653Z,2.70
2019-04-27T03:35:43.589Z,2.20
2019-04-27T03:38:12.743Z,2.52
2019-04-27T03:40:41.539Z,2.52
2019-04-27T03:43:14.807Z,2.75
2019-04-27T03:45:43.615Z,2.47
2019-04-27T03:48:12.428Z,2.80
2019-04-27T03:50:45.588Z,2.52
2019-04-27T03:53:23.255Z,2.50
2019-04-27T03:56:10.231Z,2.40
2019-04-27T03:58:40.879Z,2.58
2019-04-27T04:01:10.595Z,3.35
2019-04-27T04:03:39.744Z,3.27
2019-04-27T04:06:10.755Z,3.15
2019-04-27T04:08:39.830Z,3.60
2019-04-27T04:11:10.424Z,3.30
2019-04-27T04:13:43.525Z,2.90
2019-04-27T04:16:20.329Z,3.47
2019-04-27T04:19:02.686Z,3.22
2019-04-27T04:21:31.505Z,2.98
2019-04-27T04:24:01.206Z,3.65
2019-04-27T04:26:32.806Z,3.80
2019-04-27T04:29:00.972Z,5.35
2019-04-27T04:31:33.137Z,5.70
2019-04-27T04:34:00.282Z,5.97
2019-04-27T04:36:30.048Z,6.33
2019-04-27T04:39:00.539Z,6.20
2019-04-27T04:41:33.858Z,6.22
2019-04-27T04:44:16.911Z,6.17
2019-04-27T04:46:53.484Z,6.22
2019-04-27T04:49:22.343Z,5.78
2019-04-27T04:51:51.177Z,5.78
2019-04-27T04:54:24.240Z,5.95
2019-04-27T04:56:50.530Z,5.42
2019-04-27T04:59:20.136Z,5.53
2019-04-27T05:01:49.941Z,5.65
2019-04-27T05:04:19.456Z,4.72
2019-04-27T05:06:49.150Z,5.80
2019-04-27T05:09:19.444Z,5.25
2019-04-27T05:11:48.793Z,4.95
2019-04-27T05:14:19.818Z,4.85
2019-04-27T05:16:48.918Z,4.33
2019-04-27T05:19:18.841Z,4.20
2019-04-27T05:21:49.145Z,4.30
2019-04-27T05:24:19.261Z,3.87
2019-04-27T05:26:48.736Z,3.92
2019-04-27T05:29:19.172Z,3.70
2019-04-27T05:31:49.034Z,3.83
2019-04-27T05:34:19.549Z,3.77
2019-04-27T05:36:52.387Z,3.98
2019-04-27T05:39:24.722Z,4.45
2019-04-27T05:41:49.819Z,4.22
2019-04-27T05:44:29.737Z,4.00
2019-04-27T05:47:00.166Z,4.05
2019-04-27T05:49:36.363Z,3.95
2019-04-27T05:52:03.717Z,3.90
2019-04-27T05:54:32.541Z,4.35
2019-04-27T05:57:01.378Z,4.67
2019-04-27T05:59:30.158Z,4.50
2019-04-27T06:01:59.357Z,4.80
2019-04-27T06:04:29.115Z,4.85
2019-04-27T06:07:00.507Z,4.90
2019-04-27T06:09:29.064Z,4.60
2019-04-27T06:11:59.070Z,5.28
2019-04-27T06:14:29.232Z,4.72
2019-04-27T06:16:59.664Z,5.33
2019-04-27T06:19:29.216Z,4.70
2019-04-27T06:21:59.448Z,4.55
2019-04-27T06:24:29.787Z,4.10
2019-04-27T06:26:59.693Z,4.17
2019-04-27T06:29:29.279Z,3.52
2019-04-27T06:31:59.325Z,3.40
2019-04-27T06:34:30.888Z,3.27
2019-04-27T06:36:59.936Z,3.65
2019-04-27T06:39:29.826Z,4.03
2019-04-27T06:42:01.227Z,3.62
2019-04-27T06:44:29.469Z,3.35
2019-04-27T06:46:59.128Z,4.53
2019-04-27T06:49:29.483Z,4.08
2019-04-27T06:51:58.804Z,4.35
2019-04-27T06:54:28.874Z,4.35
2019-04-27T06:56:59.283Z,4.70
2019-04-27T06:59:28.868Z,4.80
2019-04-27T07:02:01.937Z,5.28
2019-04-27T07:04:30.927Z,5.72
2019-04-27T07:07:01.739Z,6.67
2019-04-27T07:09:30.267Z,6.20
2019-04-27T07:12:00.329Z,5.83
2019-04-27T07:14:50.318Z,6.67
2019-04-27T07:17:12.256Z,5.67
2019-04-27T07:19:41.707Z,6.58
2019-04-27T07:22:11.485Z,5.55
2019-04-27T07:24:40.639Z,5.65
2019-04-27T07:27:09.762Z,5.35
2019-04-27T07:29:39.140Z,6.00
2019-04-27T07:32:09.340Z,5.05
2019-04-27T07:34:38.803Z,5.62
2019-04-27T07:37:09.357Z,4.70
2019-04-27T07:39:39.132Z,5.85
2019-04-27T07:42:08.645Z,5.47
2019-04-27T07:44:42.261Z,5.65
2019-04-27T07:47:15.619Z,5.08
2019-04-27T07:49:44.984Z,4.40
2019-04-27T07:52:13.820Z,3.30
2019-04-27T07:54:42.587Z,2.95
2019-04-27T07:57:11.429Z,3.08
2019-04-27T07:59:42.143Z,2.80
2019-04-27T08:02:11.017Z,3.02
2019-04-27T08:04:40.491Z,3.20
2019-04-27T08:07:09.340Z,2.92
2019-04-27T08:09:39.768Z,2.70
2019-04-27T08:12:10.703Z,2.27
2019-04-27T08:14:39.329Z,2.05
2019-04-27T08:17:09.727Z,2.62
2019-04-27T08:19:39.479Z,2.15
2019-04-27T08:22:09.657Z,2.20
2019-04-27T08:24:39.601Z,1.72
2019-04-27T08:27:10.185Z,2.52
2019-04-27T08:29:58.859Z,2.40
2019-04-27T08:32:29.361Z,2.77
2019-04-27T08:34:59.487Z,2.87
2019-04-27T08:37:28.646Z,2.75
2019-04-27T08:39:59.197Z,2.70
2019-04-27T08:42:29.356Z,3.10
2019-04-27T08:44:59.428Z,3.30
2019-04-27T08:47:29.324Z,2.72
2019-04-27T08:49:59.112Z,2.58
2019-04-27T08:52:28.989Z,3.30
2019-04-27T08:54:59.445Z,2.58
2019-04-27T08:57:29.011Z,2.55
2019-04-27T08:59:59.666Z,2.77
2019-04-27T09:02:39.766Z,2.70
2019-04-27T09:04:59.627Z,2.52
2019-04-27T09:07:33.016Z,2.67
2019-04-27T09:10:18.831Z,2.50
2019-04-27T09:12:55.176Z,2.52
2019-04-27T09:15:29.236Z,2.17
2019-04-27T09:17:59.009Z,2.30
2019-04-27T09:20:38.977Z,2.05
2019-04-27T09:23:09.726Z,1.60
2019-04-27T09:25:39.651Z,1.95
2019-04-27T09:28:08.915Z,1.82
2019-04-27T09:30:39.251Z,1.70
2019-04-27T09:33:08.802Z,1.80
2019-04-27T09:35:37.608Z,1.57
2019-04-27T09:38:07.111Z,1.60
2019-04-27T09:40:36.292Z,1.80
2019-04-27T09:43:05.139Z,1.40
2019-04-27T09:45:33.962Z,1.47
2019-04-27T09:48:02.828Z,1.25
2019-04-27T09:50:31.658Z,1.60
2019-04-27T09:53:00.521Z,1.72
2019-04-27T09:55:29.334Z,1.60
2019-04-27T09:57:58.203Z,2.00
2019-04-27T10:00:27.911Z,1.60
2019-04-27T10:02:56.981Z,1.70
2019-04-27T10:05:26.336Z,1.60
2019-04-27T10:07:56.933Z,1.10
2019-04-27T10:10:26.816Z,1.40
2019-04-27T10:12:56.784Z,1.72
2019-04-27T10:15:26.657Z,1.50
2019-04-27T10:17:57.561Z,1.00
2019-04-27T10:20:26.335Z,1.00
2019-04-27T10:22:56.407Z,1.00
2019-04-27T10:25:27.058Z,1.00
2019-04-27T10:27:58.485Z,1.00
2019-04-27T10:30:28.543Z,0.95
2019-04-27T10:32:57.349Z,0.70
2019-04-27T10:35:26.221Z,0.60
2019-04-27T10:37:55.003Z,0.50
2019-04-27T10:40:23.832Z,0.40
2019-04-27T10:42:52.705Z,0.50
2019-04-27T10:45:21.546Z,0.45
2019-04-27T10:47:50.417Z,0.42
2019-04-27T10:50:19.675Z,0.30
2019-04-27T10:52:53.591Z,0.20
2019-04-27T10:55:18.976Z,0.20
2019-04-27T10:57:47.825Z,0.30
2019-04-27T11:00:19.015Z,0.30
2019-04-27T11:02:47.869Z,0.20
2019-04-27T11:05:18.980Z,0.30
2019-04-27T11:07:47.821Z,0.20
2019-04-27T11:10:16.627Z,0.20
2019-04-27T11:12:45.843Z,0.20
2019-04-27T11:15:16.364Z,0.23
2019-04-27T11:17:45.845Z,0.20
2019-04-27T11:20:17.065Z,0.20
2019-04-27T11:22:46.473Z,0.17
2019-04-27T11:25:16.461Z,0.30
2019-04-27T11:27:45.358Z,0.30
2019-04-27T11:30:15.876Z,0.60
2019-04-27T11:32:44.689Z,0.30
2019-04-27T11:35:21.282Z,0.28
2019-04-27T11:37:55.705Z,0.20
2019-04-27T11:40:25.630Z,0.30
2019-04-27T11:42:57.009Z,0.20
2019-04-27T11:45:26.469Z,0.20
2019-04-27T11:47:56.990Z,0.20
2019-04-27T11:50:25.895Z,0.10
2019-04-27T11:52:56.541Z,0.20
2019-04-27T11:55:27.171Z,0.15
2019-04-27T11:57:56.046Z,0.20
2019-04-27T12:00:25.496Z,0.20
2019-04-27T12:02:56.564Z,0.30
2019-04-27T12:05:26.074Z,0.20
2019-04-27T12:07:56.137Z,0.20
2019-04-27T12:10:26.247Z,0.20
2019-04-27T12:12:56.296Z,0.30
2019-04-27T12:15:26.307Z,0.28
2019-04-27T12:17:56.130Z,0.30
2019-04-27T12:20:25.814Z,0.30
2019-04-27T12:22:55.010Z,0.30
2019-04-27T12:25:23.794Z,1.10
2019-04-27T12:27:54.222Z,0.60
2019-04-27T12:30:42.500Z,0.70
2019-04-27T12:33:11.355Z,0.70
2019-04-27T12:35:40.212Z,0.50
2019-04-27T12:38:09.029Z,0.70
2019-04-27T12:40:37.880Z,0.40
2019-04-27T12:43:06.710Z,0.68
2019-04-27T12:45:36.716Z,0.70
2019-04-27T12:48:06.271Z,0.60
2019-04-27T12:50:36.171Z,0.47
2019-04-27T12:53:06.832Z,0.50
2019-04-27T12:55:46.476Z,0.40
2019-04-27T12:58:29.255Z,0.30
2019-04-27T13:00:59.667Z,0.30
2019-04-27T13:03:28.505Z,0.45
2019-04-27T13:05:57.340Z,0.30
2019-04-27T13:08:26.184Z,0.40
2019-04-27T13:10:55.707Z,1.00
2019-04-27T13:13:26.700Z,1.00
2019-04-27T13:15:56.442Z,1.10
2019-04-27T13:18:25.876Z,1.20
2019-04-27T13:20:55.047Z,1.00
2019-04-27T13:23:23.888Z,1.42
2019-04-27T13:25:52.703Z,1.72
2019-04-27T13:28:21.539Z,1.57
2019-04-27T13:30:50.361Z,1.80
2019-04-27T13:33:19.237Z,2.67
2019-04-27T13:35:48.044Z,2.27
2019-04-27T13:38:18.171Z,3.17
2019-04-27T13:40:48.855Z,2.77
2019-04-27T13:43:28.286Z,2.30
2019-04-27T13:46:04.396Z,2.60
2019-04-27T13:48:36.422Z,2.52
2019-04-27T13:53:36.789Z,2.20
2019-04-27T13:56:14.991Z,2.15
2019-04-27T13:58:45.455Z,1.92
2019-04-27T14:01:14.309Z,1.90
2019-04-27T14:03:45.014Z,2.65
2019-04-27T14:06:13.621Z,1.95
2019-04-27T14:08:42.437Z,2.20
2019-04-27T14:11:11.325Z,1.70
2019-04-27T14:13:40.118Z,1.80
2019-04-27T14:16:08.973Z,1.80
2019-04-27T14:18:38.529Z,2.10
2019-04-27T14:21:09.377Z,1.90
2019-04-27T14:23:38.698Z,1.67
2019-04-27T14:26:08.797Z,1.70
2019-04-27T14:28:38.114Z,1.47
2019-04-27T14:31:08.861Z,1.42
2019-04-27T14:33:39.616Z,1.20
2019-04-27T14:36:08.282Z,0.90
2019-04-27T14:38:37.432Z,0.90
2019-04-27T14:41:08.926Z,1.10
2019-04-27T14:43:37.676Z,1.15
2019-04-27T14:46:08.094Z,2.02
2019-04-27T14:48:39.151Z,1.50
2019-04-27T14:51:08.777Z,1.37
2019-04-27T14:53:38.610Z,1.30
2019-04-27T14:56:08.819Z,1.30
2019-04-27T14:58:38.077Z,1.70
2019-04-27T15:01:08.247Z,1.90
2019-04-27T15:03:37.251Z,2.33
2019-04-27T15:06:06.061Z,2.30
2019-04-27T15:08:38.394Z,2.08
2019-04-27T15:11:10.241Z,2.40
2019-04-27T15:13:37.766Z,2.58
2019-04-27T15:16:08.030Z,2.20
2019-04-27T15:18:39.914Z,2.00
2019-04-27T15:21:10.379Z,2.00
2019-04-27T15:23:41.281Z,1.20
2019-04-27T15:26:10.510Z,1.52
2019-04-27T15:28:44.717Z,2.10
2019-04-27T15:34:00.443Z,2.60
2019-04-27T15:36:30.837Z,2.50
2019-04-27T15:39:04.232Z,2.40
2019-04-27T15:41:34.634Z,1.82
2019-04-27T15:44:05.707Z,1.50
2019-04-27T15:46:35.019Z,1.20
2019-04-27T15:49:08.051Z,0.95
2019-04-27T15:51:34.782Z,1.20
2019-04-27T15:54:03.601Z,0.90
2019-04-27T15:56:35.085Z,1.20
2019-04-27T15:59:03.025Z,1.30
2019-04-27T16:01:35.909Z,1.80
2019-04-27T16:04:06.614Z,1.50
2019-04-27T16:06:32.847Z,1.20
2019-04-27T16:09:01.678Z,1.10
2019-04-27T16:11:30.536Z,1.30
2019-04-27T16:14:02.993Z,1.30
2019-04-27T16:16:33.426Z,1.12
2019-04-27T16:19:03.674Z,0.98
2019-04-27T16:21:31.613Z,1.00
2019-04-27T16:24:00.563Z,0.90
2019-04-27T16:26:29.414Z,0.80
2019-04-27T16:28:58.249Z,0.70
2019-04-27T16:31:30.210Z,0.70
2019-04-27T16:33:59.222Z,0.60
2019-04-27T16:36:28.864Z,0.60
2019-04-27T16:39:03.604Z,0.60
2019-04-27T16:41:36.915Z,0.40
2019-04-27T16:44:06.996Z,0.60
2019-04-27T16:46:35.014Z,0.70
2019-04-27T16:49:07.288Z,0.53
2019-04-27T16:54:05.865Z,0.60
2019-04-27T16:56:34.702Z,0.70
2019-04-27T16:59:25.917Z,0.60
2019-04-27T17:01:34.030Z,0.68
2019-04-27T17:04:06.430Z,0.68
2019-04-27T17:06:33.443Z,0.90
2019-04-27T17:09:06.878Z,0.90
2019-04-27T17:11:32.766Z,0.80
2019-04-27T17:12:40.066Z,0.50
2019-04-27T17:14:03.286Z,1.10
2019-04-27T17:16:39.456Z,1.00
2019-04-27T17:19:15.654Z,1.02
2019-04-27T17:21:44.477Z,1.50
2019-04-27T17:24:14.893Z,1.50
2019-04-27T17:26:43.821Z,1.90
2019-04-27T17:29:20.248Z,1.95
2019-04-27T17:31:50.430Z,2.30
2019-04-27T17:34:25.396Z,2.27
2019-04-27T17:36:54.890Z,2.98
2019-04-27T17:39:23.440Z,2.55
2019-04-27T17:41:52.996Z,2.40
2019-04-27T17:44:23.311Z,2.25
2019-04-27T17:46:52.322Z,2.50
2019-04-27T17:49:21.183Z,2.45
2019-04-27T17:51:50.020Z,2.40
2019-04-27T17:54:18.869Z,2.08
2019-04-27T17:56:49.590Z,1.95
2019-04-27T17:59:20.677Z,2.40
2019-04-27T18:01:49.610Z,2.22
2019-04-27T18:04:18.896Z,2.30
2019-04-27T18:06:48.398Z,2.20
2019-04-27T18:09:19.128Z,2.80
2019-04-27T18:11:48.629Z,2.30
2019-04-27T18:14:19.237Z,2.35
2019-04-27T18:16:48.474Z,2.58
2019-04-27T18:19:24.727Z,2.37
2019-04-27T18:22:01.291Z,2.60
2019-04-27T18:24:31.823Z,2.50
2019-04-27T18:27:18.558Z,2.30
2019-04-27T18:29:48.602Z,2.27
2019-04-27T18:32:17.745Z,1.98
2019-04-27T18:34:49.658Z,2.12
2019-04-27T18:37:20.916Z,2.70
2019-04-27T18:39:51.007Z,2.10
2019-04-27T18:42:18.321Z,2.27
2019-04-27T18:44:48.574Z,2.30
2019-04-27T18:47:17.698Z,2.30
2019-04-27T18:50:07.373Z,2.33
2019-04-27T18:52:42.108Z,2.25
2019-04-27T18:55:10.987Z,2.50
2019-04-27T18:57:39.238Z,2.92
2019-04-27T19:00:11.348Z,3.42
2019-04-27T19:05:08.936Z,3.10
2019-04-27T19:07:38.357Z,2.83
2019-04-27T19:10:08.961Z,1.92
2019-04-27T19:12:39.445Z,1.80
2019-04-27T19:15:08.483Z,2.05
2019-04-27T19:17:38.704Z,2.05
2019-04-27T19:20:10.495Z,1.82
2019-04-27T19:22:38.869Z,2.22
2019-04-27T19:25:09.830Z,1.80
2019-04-27T19:27:42.746Z,1.90
2019-04-27T19:30:18.914Z,1.98
2019-04-27T19:32:47.999Z,1.95
2019-04-27T19:35:19.776Z,1.95
2019-04-27T19:37:48.652Z,2.20
2019-04-27T19:40:18.658Z,1.87
2019-04-27T19:42:48.627Z,1.92
2019-04-27T19:45:19.316Z,2.40
2019-04-27T19:47:48.652Z,2.80
2019-04-27T19:50:19.236Z,2.67
2019-04-27T19:52:50.190Z,2.80
2019-04-27T19:55:19.003Z,2.80
2019-04-27T19:57:49.655Z,3.50
2019-04-27T20:00:36.005Z,2.65
2019-04-27T20:03:06.184Z,2.58
2019-04-27T20:05:35.015Z,3.00
2019-04-27T20:08:05.404Z,3.00
2019-04-27T20:10:34.422Z,2.80
2019-04-27T20:13:03.482Z,2.72
2019-04-27T20:15:32.545Z,3.05
2019-04-27T20:18:01.480Z,3.37
2019-04-27T20:20:30.321Z,3.35
2019-04-27T20:22:59.148Z,3.77
2019-04-27T20:25:28.002Z,3.25
2019-04-27T20:27:56.814Z,3.05
2019-04-27T20:30:25.671Z,2.37
2019-04-27T20:32:54.471Z,2.70
2019-04-27T20:35:23.324Z,2.22
2019-04-27T20:37:52.179Z,2.30
2019-04-27T20:40:21.827Z,2.47
2019-04-27T20:42:51.592Z,2.37
2019-04-27T20:45:20.729Z,2.17
2019-04-27T20:47:52.373Z,2.37
2019-04-27T20:50:20.042Z,2.50
2019-04-27T20:52:50.480Z,2.60
2019-04-27T20:55:21.216Z,2.40
2019-04-27T20:57:59.676Z,2.72
2019-04-27T21:00:22.007Z,2.70
2019-04-27T21:02:55.098Z,2.67
2019-04-27T21:05:25.477Z,2.58
2019-04-27T21:08:01.771Z,2.35
2019-04-27T21:10:30.807Z,2.50
2019-04-27T21:13:01.092Z,2.52
2019-04-27T21:15:31.503Z,2.70
2019-04-27T21:18:01.289Z,2.62
2019-04-27T21:20:30.980Z,2.30
2019-04-27T21:23:01.805Z,2.25
2019-04-27T21:25:31.579Z,2.30
2019-04-27T21:28:14.942Z,2.20
2019-04-27T21:30:31.633Z,2.20
2019-04-27T21:33:01.097Z,2.22
2019-04-27T21:35:30.339Z,2.10
2019-04-27T21:38:01.139Z,2.00
2019-04-27T21:40:30.698Z,2.00
2019-04-27T21:43:01.150Z,1.80
2019-04-27T21:45:31.794Z,2.00
2019-04-27T21:48:00.925Z,2.08
2019-04-27T21:50:31.443Z,1.70
2019-04-27T21:53:07.999Z,1.70
2019-04-27T21:55:38.367Z,1.35
2019-04-27T21:58:07.186Z,1.55
2019-04-27T22:00:42.726Z,1.75
2019-04-27T22:03:13.649Z,1.47
2019-04-27T22:05:42.493Z,1.50
2019-04-27T22:08:11.760Z,1.50
2019-04-27T22:10:41.333Z,1.50
2019-04-27T22:13:10.110Z,1.47
2019-04-27T22:15:38.924Z,1.30
2019-04-27T22:18:07.884Z,1.37
2019-04-27T22:20:37.215Z,1.40
2019-04-27T22:23:07.648Z,1.40
2019-04-27T22:25:37.969Z,1.62
2019-04-27T22:28:06.817Z,1.50
2019-04-27T22:30:35.959Z,1.67
2019-04-27T22:33:05.008Z,1.35
2019-04-27T22:35:33.770Z,1.37
2019-04-27T22:38:02.620Z,1.55
2019-04-27T22:40:50.768Z,1.40
2019-04-27T22:43:37.907Z,1.30
2019-04-27T22:46:08.316Z,1.30
2019-04-27T22:48:37.177Z,1.32
2019-04-27T22:51:05.997Z,1.30
2019-04-27T22:53:34.856Z,1.30
2019-04-27T22:56:13.891Z,1.50
2019-04-27T22:59:04.069Z,1.45
2019-04-27T23:01:53.157Z,1.57
2019-04-27T23:04:23.567Z,1.50
2019-04-27T23:06:52.389Z,1.72
2019-04-27T23:09:21.889Z,1.60
2019-04-27T23:11:51.649Z,1.50
2019-04-27T23:14:21.195Z,1.98
2019-04-27T23:16:54.766Z,2.12
2019-04-27T23:19:23.651Z,2.08
2019-04-27T23:21:53.244Z,2.20
2019-04-27T23:24:22.354Z,2.37
2019-04-27T23:26:51.174Z,2.40
2019-04-27T23:29:21.383Z,2.10
2019-04-27T23:31:52.718Z,2.00
2019-04-27T23:34:21.731Z,2.20
2019-04-27T23:36:50.536Z,2.00
2019-04-27T23:39:19.375Z,2.33
2019-04-27T23:41:48.201Z,2.50
2019-04-27T23:44:17.007Z,2.77
2019-04-27T23:46:45.856Z,2.60
2019-04-27T23:49:14.703Z,3.15
2019-04-27T23:51:51.011Z,3.22
2019-04-27T23:54:19.769Z,3.50
2019-04-27T23:56:48.631Z,3.40
2019-04-27T23:59:24.763Z,3.35
